sensor_id;sensor_type;location;lat;lon;timestamp;P1;durP1;ratioP1;P2;durP2;ratioP2
55009;SDS011;40903;51.638;7.528;2022-07-24T00:00:26;4.70;;;4.30;;
55009;SDS011;40903;51.638;7.528;2022-07-24T00:02:51;5.70;;;5.00;;
55009;SDS011;40903;51.638;7.528;2022-07-24T00:05:17;5.47;;;4.33;;
55009;SDS011;40903;51.638;7.528;2022-07-24T00:07:42;5.13;;;4.17;;
55009;SDS011;40903;51.638;7.528;2022-07-24T00:10:09;5.40;;;4.90;;
55009;SDS011;40903;51.638;7.528;2022-07-24T00:12:35;5.37;;;4.30;;
55009;SDS011;40903;51.638;7.528;2022-07-24T00:15:01;5.63;;;5.03;;
55009;SDS011;40903;51.638;7.528;2022-07-24T00:17:27;4.90;;;4.40;;
55009;SDS011;40903;51.638;7.528;2022-07-24T00:19:53;5.77;;;4.60;;
55009;SDS011;40903;51.638;7.528;2022-07-24T00:22:19;6.20;;;4.53;;
55009;SDS011;40903;51.638;7.528;2022-07-24T00:24:44;4.80;;;4.27;;
55009;SDS011;40903;51.638;7.528;2022-07-24T00:27:10;6.73;;;4.20;;
55009;SDS011;40903;51.638;7.528;2022-07-24T00:29:35;5.43;;;4.93;;
55009;SDS011;40903;51.638;7.528;2022-07-24T00:32:01;5.37;;;4.83;;
55009;SDS011;40903;51.638;7.528;2022-07-24T00:34:27;6.17;;;4.90;;
55009;SDS011;40903;51.638;7.528;2022-07-24T00:36:53;6.80;;;5.23;;
55009;SDS011;40903;51.638;7.528;2022-07-24T00:39:18;6.40;;;4.93;;
55009;SDS011;40903;51.638;7.528;2022-07-24T00:41:44;4.53;;;4.13;;
55009;SDS011;40903;51.638;7.528;2022-07-24T00:44:11;5.57;;;4.97;;
55009;SDS011;40903;51.638;7.528;2022-07-24T00:46:39;5.40;;;4.90;;
55009;SDS011;40903;51.638;7.528;2022-07-24T00:49:08;6.57;;;5.27;;
55009;SDS011;40903;51.638;7.528;2022-07-24T00:51:35;5.40;;;4.90;;
55009;SDS011;40903;51.638;7.528;2022-07-24T00:54:03;8.53;;;5.00;;
55009;SDS011;40903;51.638;7.528;2022-07-24T00:56:30;5.50;;;5.00;;
55009;SDS011;40903;51.638;7.528;2022-07-24T00:58:55;5.40;;;4.90;;
55009;SDS011;40903;51.638;7.528;2022-07-24T01:01:21;5.80;;;4.70;;
55009;SDS011;40903;51.638;7.528;2022-07-24T01:03:47;5.40;;;4.90;;
55009;SDS011;40903;51.638;7.528;2022-07-24T01:06:13;5.33;;;4.83;;
55009;SDS011;40903;51.638;7.528;2022-07-24T01:08:38;5.67;;;5.07;;
55009;SDS011;40903;51.638;7.528;2022-07-24T01:11:05;5.30;;;4.80;;
55009;SDS011;40903;51.638;7.528;2022-07-24T01:13:31;5.07;;;4.57;;
55009;SDS011;40903;51.638;7.528;2022-07-24T01:15:57;5.50;;;5.00;;
55009;SDS011;40903;51.638;7.528;2022-07-24T01:18:24;6.00;;;5.40;;
55009;SDS011;40903;51.638;7.528;2022-07-24T01:20:50;4.90;;;4.50;;
55009;SDS011;40903;51.638;7.528;2022-07-24T01:23:16;8.17;;;5.57;;
55009;SDS011;40903;51.638;7.528;2022-07-24T01:25:41;8.20;;;6.50;;
55009;SDS011;40903;51.638;7.528;2022-07-24T01:28:08;6.50;;;5.90;;
55009;SDS011;40903;51.638;7.528;2022-07-24T01:30:34;8.30;;;5.63;;
55009;SDS011;40903;51.638;7.528;2022-07-24T01:33:00;6.80;;;5.90;;
55009;SDS011;40903;51.638;7.528;2022-07-24T01:35:26;6.23;;;4.97;;
55009;SDS011;40903;51.638;7.528;2022-07-24T01:37:52;7.03;;;4.70;;
55009;SDS011;40903;51.638;7.528;2022-07-24T01:40:18;6.10;;;4.77;;
55009;SDS011;40903;51.638;7.528;2022-07-24T01:42:44;6.00;;;5.30;;
55009;SDS011;40903;51.638;7.528;2022-07-24T01:45:12;5.93;;;5.33;;
55009;SDS011;40903;51.638;7.528;2022-07-24T01:47:39;6.43;;;5.30;;
55009;SDS011;40903;51.638;7.528;2022-07-24T01:50:05;7.07;;;5.73;;
55009;SDS011;40903;51.638;7.528;2022-07-24T01:52:31;4.97;;;4.50;;
55009;SDS011;40903;51.638;7.528;2022-07-24T01:54:57;5.37;;;4.53;;
55009;SDS011;40903;51.638;7.528;2022-07-24T01:57:23;5.30;;;4.70;;
55009;SDS011;40903;51.638;7.528;2022-07-24T01:59:48;5.20;;;4.70;;
55009;SDS011;40903;51.638;7.528;2022-07-24T02:02:14;9.07;;;5.30;;
55009;SDS011;40903;51.638;7.528;2022-07-24T02:04:40;5.60;;;5.10;;
55009;SDS011;40903;51.638;7.528;2022-07-24T02:07:05;5.23;;;4.73;;
55009;SDS011;40903;51.638;7.528;2022-07-24T02:09:31;6.53;;;5.30;;
55009;SDS011;40903;51.638;7.528;2022-07-24T02:11:56;5.23;;;4.73;;
55009;SDS011;40903;51.638;7.528;2022-07-24T02:14:22;6.73;;;5.73;;
55009;SDS011;40903;51.638;7.528;2022-07-24T02:16:47;5.37;;;4.80;;
55009;SDS011;40903;51.638;7.528;2022-07-24T02:19:15;7.27;;;4.93;;
55009;SDS011;40903;51.638;7.528;2022-07-24T02:21:41;5.93;;;5.43;;
55009;SDS011;40903;51.638;7.528;2022-07-24T02:24:06;5.63;;;5.13;;
55009;SDS011;40903;51.638;7.528;2022-07-24T02:26:32;5.87;;;5.20;;
55009;SDS011;40903;51.638;7.528;2022-07-24T02:28:58;7.30;;;5.23;;
55009;SDS011;40903;51.638;7.528;2022-07-24T02:31:24;5.90;;;5.40;;
55009;SDS011;40903;51.638;7.528;2022-07-24T02:33:50;6.17;;;5.20;;
55009;SDS011;40903;51.638;7.528;2022-07-24T02:36:16;5.83;;;5.23;;
55009;SDS011;40903;51.638;7.528;2022-07-24T02:38:42;6.27;;;5.50;;
55009;SDS011;40903;51.638;7.528;2022-07-24T02:41:10;6.13;;;5.03;;
55009;SDS011;40903;51.638;7.528;2022-07-24T02:43:36;5.83;;;5.33;;
55009;SDS011;40903;51.638;7.528;2022-07-24T02:46:04;8.77;;;5.00;;
55009;SDS011;40903;51.638;7.528;2022-07-24T02:48:30;5.83;;;5.23;;
55009;SDS011;40903;51.638;7.528;2022-07-24T02:50:58;8.10;;;5.70;;
55009;SDS011;40903;51.638;7.528;2022-07-24T02:53:27;6.30;;;5.10;;
55009;SDS011;40903;51.638;7.528;2022-07-24T02:55:52;7.77;;;6.07;;
55009;SDS011;40903;51.638;7.528;2022-07-24T02:58:18;6.10;;;5.50;;
55009;SDS011;40903;51.638;7.528;2022-07-24T03:00:44;5.83;;;5.23;;
55009;SDS011;40903;51.638;7.528;2022-07-24T03:03:09;5.73;;;5.20;;
55009;SDS011;40903;51.638;7.528;2022-07-24T03:05:38;6.33;;;5.83;;
55009;SDS011;40903;51.638;7.528;2022-07-24T03:08:03;5.50;;;5.10;;
55009;SDS011;40903;51.638;7.528;2022-07-24T03:10:39;6.20;;;5.60;;
55009;SDS011;40903;51.638;7.528;2022-07-24T03:13:10;5.73;;;5.27;;
55009;SDS011;40903;51.638;7.528;2022-07-24T03:15:37;5.73;;;5.13;;
55009;SDS011;40903;51.638;7.528;2022-07-24T03:18:03;5.97;;;5.47;;
55009;SDS011;40903;51.638;7.528;2022-07-24T03:20:28;7.27;;;6.57;;
55009;SDS011;40903;51.638;7.528;2022-07-24T03:22:55;6.47;;;5.80;;
55009;SDS011;40903;51.638;7.528;2022-07-24T03:25:22;7.57;;;5.90;;
55009;SDS011;40903;51.638;7.528;2022-07-24T03:27:48;6.80;;;6.10;;
55009;SDS011;40903;51.638;7.528;2022-07-24T03:30:15;6.90;;;6.20;;
55009;SDS011;40903;51.638;7.528;2022-07-24T03:32:41;6.30;;;5.70;;
55009;SDS011;40903;51.638;7.528;2022-07-24T03:35:07;6.40;;;5.37;;
55009;SDS011;40903;51.638;7.528;2022-07-24T03:37:32;6.10;;;5.50;;
55009;SDS011;40903;51.638;7.528;2022-07-24T03:39:58;6.17;;;5.57;;
55009;SDS011;40903;51.638;7.528;2022-07-24T03:42:24;6.23;;;5.63;;
55009;SDS011;40903;51.638;7.528;2022-07-24T03:44:49;6.33;;;5.63;;
55009;SDS011;40903;51.638;7.528;2022-07-24T03:47:15;6.30;;;5.70;;
55009;SDS011;40903;51.638;7.528;2022-07-24T03:49:41;6.00;;;5.50;;
55009;SDS011;40903;51.638;7.528;2022-07-24T03:52:07;6.83;;;6.20;;
55009;SDS011;40903;51.638;7.528;2022-07-24T03:54:33;6.60;;;6.00;;
55009;SDS011;40903;51.638;7.528;2022-07-24T03:56:58;7.10;;;5.77;;
55009;SDS011;40903;51.638;7.528;2022-07-24T03:59:24;6.73;;;6.13;;
55009;SDS011;40903;51.638;7.528;2022-07-24T04:01:50;6.40;;;5.77;;
55009;SDS011;40903;51.638;7.528;2022-07-24T04:04:15;5.87;;;5.37;;
55009;SDS011;40903;51.638;7.528;2022-07-24T04:06:41;6.40;;;5.80;;
55009;SDS011;40903;51.638;7.528;2022-07-24T04:09:07;7.23;;;6.00;;
55009;SDS011;40903;51.638;7.528;2022-07-24T04:11:33;6.70;;;6.00;;
55009;SDS011;40903;51.638;7.528;2022-07-24T04:13:59;8.17;;;6.60;;
55009;SDS011;40903;51.638;7.528;2022-07-24T04:16:25;6.90;;;6.17;;
55009;SDS011;40903;51.638;7.528;2022-07-24T04:18:51;7.10;;;6.40;;
55009;SDS011;40903;51.638;7.528;2022-07-24T04:21:16;7.40;;;6.70;;
55009;SDS011;40903;51.638;7.528;2022-07-24T04:23:42;6.90;;;6.20;;
55009;SDS011;40903;51.638;7.528;2022-07-24T04:26:08;7.03;;;6.20;;
55009;SDS011;40903;51.638;7.528;2022-07-24T04:28:34;7.13;;;6.40;;
55009;SDS011;40903;51.638;7.528;2022-07-24T04:30:59;7.20;;;6.30;;
55009;SDS011;40903;51.638;7.528;2022-07-24T04:33:25;6.83;;;6.23;;
55009;SDS011;40903;51.638;7.528;2022-07-24T04:35:50;7.27;;;6.57;;
55009;SDS011;40903;51.638;7.528;2022-07-24T04:38:15;7.57;;;6.50;;
55009;SDS011;40903;51.638;7.528;2022-07-24T04:40:41;7.47;;;6.73;;
55009;SDS011;40903;51.638;7.528;2022-07-24T04:43:06;7.67;;;6.53;;
55009;SDS011;40903;51.638;7.528;2022-07-24T04:45:32;7.30;;;6.33;;
55009;SDS011;40903;51.638;7.528;2022-07-24T04:47:57;8.63;;;6.37;;
55009;SDS011;40903;51.638;7.528;2022-07-24T04:50:23;7.73;;;6.83;;
55009;SDS011;40903;51.638;7.528;2022-07-24T04:52:48;7.33;;;6.63;;
55009;SDS011;40903;51.638;7.528;2022-07-24T04:55:13;7.67;;;6.60;;
55009;SDS011;40903;51.638;7.528;2022-07-24T04:57:39;7.40;;;6.23;;
55009;SDS011;40903;51.638;7.528;2022-07-24T05:00:05;7.03;;;6.40;;
55009;SDS011;40903;51.638;7.528;2022-07-24T05:02:33;7.33;;;6.63;;
55009;SDS011;40903;51.638;7.528;2022-07-24T05:04:58;7.27;;;6.47;;
55009;SDS011;40903;51.638;7.528;2022-07-24T05:07:24;7.50;;;6.63;;
55009;SDS011;40903;51.638;7.528;2022-07-24T05:09:49;7.03;;;6.43;;
55009;SDS011;40903;51.638;7.528;2022-07-24T05:12:14;6.67;;;6.07;;
55009;SDS011;40903;51.638;7.528;2022-07-24T05:14:40;7.10;;;6.40;;
55009;SDS011;40903;51.638;7.528;2022-07-24T05:17:05;7.33;;;6.63;;
55009;SDS011;40903;51.638;7.528;2022-07-24T05:19:30;7.60;;;6.77;;
55009;SDS011;40903;51.638;7.528;2022-07-24T05:21:55;7.00;;;6.27;;
55009;SDS011;40903;51.638;7.528;2022-07-24T05:24:21;6.93;;;5.90;;
55009;SDS011;40903;51.638;7.528;2022-07-24T05:26:46;7.13;;;5.77;;
55009;SDS011;40903;51.638;7.528;2022-07-24T05:29:11;6.77;;;6.07;;
55009;SDS011;40903;51.638;7.528;2022-07-24T05:31:37;6.43;;;5.87;;
55009;SDS011;40903;51.638;7.528;2022-07-24T05:34:02;6.53;;;5.80;;
55009;SDS011;40903;51.638;7.528;2022-07-24T05:36:28;6.47;;;5.80;;
55009;SDS011;40903;51.638;7.528;2022-07-24T05:38:54;5.93;;;5.43;;
55009;SDS011;40903;51.638;7.528;2022-07-24T05:41:19;6.40;;;5.50;;
55009;SDS011;40903;51.638;7.528;2022-07-24T05:43:45;7.57;;;6.70;;
55009;SDS011;40903;51.638;7.528;2022-07-24T05:46:10;6.77;;;5.97;;
55009;SDS011;40903;51.638;7.528;2022-07-24T05:48:35;5.77;;;5.27;;
55009;SDS011;40903;51.638;7.528;2022-07-24T05:51:01;6.20;;;5.60;;
55009;SDS011;40903;51.638;7.528;2022-07-24T05:53:26;6.23;;;5.63;;
55009;SDS011;40903;51.638;7.528;2022-07-24T05:55:52;5.97;;;5.10;;
55009;SDS011;40903;51.638;7.528;2022-07-24T05:58:17;5.53;;;5.03;;
55009;SDS011;40903;51.638;7.528;2022-07-24T06:00:43;5.80;;;5.30;;
55009;SDS011;40903;51.638;7.528;2022-07-24T06:03:09;6.73;;;5.40;;
55009;SDS011;40903;51.638;7.528;2022-07-24T06:05:34;5.97;;;5.20;;
55009;SDS011;40903;51.638;7.528;2022-07-24T06:07:59;5.93;;;5.40;;
55009;SDS011;40903;51.638;7.528;2022-07-24T06:10:25;7.07;;;5.43;;
55009;SDS011;40903;51.638;7.528;2022-07-24T06:12:50;8.47;;;5.90;;
55009;SDS011;40903;51.638;7.528;2022-07-24T06:15:15;7.03;;;6.10;;
55009;SDS011;40903;51.638;7.528;2022-07-24T06:17:41;5.80;;;5.30;;
55009;SDS011;40903;51.638;7.528;2022-07-24T06:20:06;5.80;;;5.30;;
55009;SDS011;40903;51.638;7.528;2022-07-24T06:22:33;4.90;;;4.50;;
55009;SDS011;40903;51.638;7.528;2022-07-24T06:24:59;5.13;;;4.73;;
55009;SDS011;40903;51.638;7.528;2022-07-24T06:27:24;6.07;;;4.80;;
55009;SDS011;40903;51.638;7.528;2022-07-24T06:29:50;5.23;;;4.67;;
55009;SDS011;40903;51.638;7.528;2022-07-24T06:32:15;4.90;;;4.50;;
55009;SDS011;40903;51.638;7.528;2022-07-24T06:34:40;9.37;;;5.00;;
55009;SDS011;40903;51.638;7.528;2022-07-24T06:37:05;5.13;;;4.63;;
55009;SDS011;40903;51.638;7.528;2022-07-24T06:39:31;5.00;;;4.50;;
55009;SDS011;40903;51.638;7.528;2022-07-24T06:41:56;5.50;;;5.00;;
55009;SDS011;40903;51.638;7.528;2022-07-24T06:44:21;5.63;;;4.50;;
55009;SDS011;40903;51.638;7.528;2022-07-24T06:46:47;5.27;;;4.57;;
55009;SDS011;40903;51.638;7.528;2022-07-24T06:49:13;5.03;;;4.53;;
55009;SDS011;40903;51.638;7.528;2022-07-24T06:51:38;5.40;;;4.90;;
55009;SDS011;40903;51.638;7.528;2022-07-24T06:54:03;6.53;;;5.03;;
55009;SDS011;40903;51.638;7.528;2022-07-24T06:56:29;5.73;;;4.70;;
55009;SDS011;40903;51.638;7.528;2022-07-24T06:58:54;5.17;;;4.20;;
55009;SDS011;40903;51.638;7.528;2022-07-24T07:01:19;4.93;;;4.43;;
55009;SDS011;40903;51.638;7.528;2022-07-24T07:03:45;4.37;;;4.07;;
55009;SDS011;40903;51.638;7.528;2022-07-24T07:06:10;5.23;;;4.53;;
55009;SDS011;40903;51.638;7.528;2022-07-24T07:08:35;4.60;;;4.20;;
55009;SDS011;40903;51.638;7.528;2022-07-24T07:11:00;5.00;;;4.23;;
55009;SDS011;40903;51.638;7.528;2022-07-24T07:13:26;4.20;;;3.87;;
55009;SDS011;40903;51.638;7.528;2022-07-24T07:15:51;5.00;;;4.60;;
55009;SDS011;40903;51.638;7.528;2022-07-24T07:18:16;5.30;;;4.80;;
55009;SDS011;40903;51.638;7.528;2022-07-24T07:20:42;5.57;;;4.07;;
55009;SDS011;40903;51.638;7.528;2022-07-24T07:23:07;5.00;;;4.30;;
55009;SDS011;40903;51.638;7.528;2022-07-24T07:25:32;4.30;;;3.87;;
55009;SDS011;40903;51.638;7.528;2022-07-24T07:27:58;4.63;;;4.23;;
55009;SDS011;40903;51.638;7.528;2022-07-24T07:30:23;4.60;;;4.10;;
55009;SDS011;40903;51.638;7.528;2022-07-24T07:32:48;5.97;;;4.60;;
55009;SDS011;40903;51.638;7.528;2022-07-24T07:35:14;4.93;;;4.50;;
55009;SDS011;40903;51.638;7.528;2022-07-24T07:37:39;7.10;;;4.40;;
55009;SDS011;40903;51.638;7.528;2022-07-24T07:40:04;4.37;;;4.07;;
55009;SDS011;40903;51.638;7.528;2022-07-24T07:42:30;5.77;;;4.17;;
55009;SDS011;40903;51.638;7.528;2022-07-24T07:44:56;4.53;;;4.13;;
55009;SDS011;40903;51.638;7.528;2022-07-24T07:47:21;5.20;;;4.40;;
55009;SDS011;40903;51.638;7.528;2022-07-24T07:49:46;4.63;;;4.20;;
55009;SDS011;40903;51.638;7.528;2022-07-24T07:52:12;6.73;;;6.07;;
55009;SDS011;40903;51.638;7.528;2022-07-24T07:54:37;5.53;;;4.50;;
55009;SDS011;40903;51.638;7.528;2022-07-24T07:57:02;5.20;;;4.43;;
55009;SDS011;40903;51.638;7.528;2022-07-24T07:59:28;3.90;;;3.60;;
55009;SDS011;40903;51.638;7.528;2022-07-24T08:01:53;3.70;;;3.40;;
55009;SDS011;40903;51.638;7.528;2022-07-24T08:04:18;4.43;;;4.03;;
55009;SDS011;40903;51.638;7.528;2022-07-24T08:06:44;4.37;;;3.90;;
55009;SDS011;40903;51.638;7.528;2022-07-24T08:09:09;4.23;;;3.93;;
55009;SDS011;40903;51.638;7.528;2022-07-24T08:11:34;4.30;;;4.00;;
55009;SDS011;40903;51.638;7.528;2022-07-24T08:13:59;4.13;;;3.73;;
55009;SDS011;40903;51.638;7.528;2022-07-24T08:16:25;5.83;;;3.80;;
55009;SDS011;40903;51.638;7.528;2022-07-24T08:18:51;4.70;;;4.30;;
55009;SDS011;40903;51.638;7.528;2022-07-24T08:21:16;4.33;;;3.97;;
55009;SDS011;40903;51.638;7.528;2022-07-24T08:23:43;4.40;;;4.00;;
55009;SDS011;40903;51.638;7.528;2022-07-24T08:26:10;4.53;;;3.90;;
55009;SDS011;40903;51.638;7.528;2022-07-24T08:28:36;5.30;;;3.87;;
55009;SDS011;40903;51.638;7.528;2022-07-24T08:31:01;6.40;;;4.37;;
55009;SDS011;40903;51.638;7.528;2022-07-24T08:33:27;4.20;;;3.60;;
55009;SDS011;40903;51.638;7.528;2022-07-24T08:35:52;4.40;;;3.77;;
55009;SDS011;40903;51.638;7.528;2022-07-24T08:38:17;6.87;;;4.80;;
55009;SDS011;40903;51.638;7.528;2022-07-24T08:40:43;4.30;;;3.90;;
55009;SDS011;40903;51.638;7.528;2022-07-24T08:43:09;4.93;;;3.80;;
55009;SDS011;40903;51.638;7.528;2022-07-24T08:45:35;4.27;;;3.83;;
55009;SDS011;40903;51.638;7.528;2022-07-24T08:48:05;4.33;;;3.90;;
55009;SDS011;40903;51.638;7.528;2022-07-24T08:50:33;3.63;;;3.33;;
55009;SDS011;40903;51.638;7.528;2022-07-24T08:53:01;4.30;;;4.00;;
55009;SDS011;40903;51.638;7.528;2022-07-24T08:55:28;4.50;;;4.10;;
55009;SDS011;40903;51.638;7.528;2022-07-24T08:58:00;6.17;;;4.27;;
55009;SDS011;40903;51.638;7.528;2022-07-24T09:00:28;5.83;;;4.10;;
55009;SDS011;40903;51.638;7.528;2022-07-24T09:02:54;5.10;;;3.87;;
55009;SDS011;40903;51.638;7.528;2022-07-24T09:05:20;5.60;;;4.60;;
55009;SDS011;40903;51.638;7.528;2022-07-24T09:07:45;5.40;;;4.50;;
55009;SDS011;40903;51.638;7.528;2022-07-24T09:10:12;4.57;;;4.20;;
55009;SDS011;40903;51.638;7.528;2022-07-24T09:12:41;4.90;;;4.50;;
55009;SDS011;40903;51.638;7.528;2022-07-24T09:15:14;4.67;;;4.27;;
55009;SDS011;40903;51.638;7.528;2022-07-24T09:17:50;5.13;;;4.53;;
55009;SDS011;40903;51.638;7.528;2022-07-24T09:20:17;6.00;;;5.50;;
55009;SDS011;40903;51.638;7.528;2022-07-24T09:22:43;6.07;;;5.47;;
55009;SDS011;40903;51.638;7.528;2022-07-24T09:27:41;5.87;;;5.30;;
55009;SDS011;40903;51.638;7.528;2022-07-24T09:30:14;4.73;;;4.33;;
55009;SDS011;40903;51.638;7.528;2022-07-24T09:32:53;6.30;;;4.80;;
55009;SDS011;40903;51.638;7.528;2022-07-24T09:35:21;5.23;;;4.83;;
55009;SDS011;40903;51.638;7.528;2022-07-24T09:37:54;7.47;;;5.07;;
55009;SDS011;40903;51.638;7.528;2022-07-24T09:40:21;5.37;;;4.87;;
55009;SDS011;40903;51.638;7.528;2022-07-24T09:42:46;5.83;;;4.83;;
55009;SDS011;40903;51.638;7.528;2022-07-24T09:45:12;6.10;;;5.23;;
55009;SDS011;40903;51.638;7.528;2022-07-24T09:47:38;5.47;;;5.00;;
55009;SDS011;40903;51.638;7.528;2022-07-24T09:50:14;5.47;;;4.60;;
55009;SDS011;40903;51.638;7.528;2022-07-24T09:52:41;7.50;;;5.70;;
55009;SDS011;40903;51.638;7.528;2022-07-24T09:55:21;5.10;;;4.70;;
55009;SDS011;40903;51.638;7.528;2022-07-24T09:57:48;6.23;;;4.90;;
55009;SDS011;40903;51.638;7.528;2022-07-24T10:00:14;7.47;;;5.47;;
55009;SDS011;40903;51.638;7.528;2022-07-24T10:02:41;6.63;;;5.43;;
55009;SDS011;40903;51.638;7.528;2022-07-24T10:05:08;5.67;;;5.00;;
55009;SDS011;40903;51.638;7.528;2022-07-24T10:07:36;6.63;;;5.60;;
55009;SDS011;40903;51.638;7.528;2022-07-24T10:10:02;7.63;;;4.97;;
55009;SDS011;40903;51.638;7.528;2022-07-24T10:12:28;6.43;;;5.20;;
55009;SDS011;40903;51.638;7.528;2022-07-24T10:14:57;6.50;;;4.73;;
55009;SDS011;40903;51.638;7.528;2022-07-24T10:17:42;5.50;;;5.00;;
55009;SDS011;40903;51.638;7.528;2022-07-24T10:20:38;5.17;;;4.77;;
55009;SDS011;40903;51.638;7.528;2022-07-24T10:23:06;8.93;;;5.33;;
55009;SDS011;40903;51.638;7.528;2022-07-24T10:25:44;6.87;;;4.90;;
55009;SDS011;40903;51.638;7.528;2022-07-24T10:28:24;5.60;;;5.10;;
55009;SDS011;40903;51.638;7.528;2022-07-24T10:31:04;5.97;;;5.20;;
55009;SDS011;40903;51.638;7.528;2022-07-24T10:33:31;8.17;;;5.47;;
55009;SDS011;40903;51.638;7.528;2022-07-24T10:35:58;5.67;;;5.17;;
55009;SDS011;40903;51.638;7.528;2022-07-24T10:38:29;5.80;;;5.27;;
55009;SDS011;40903;51.638;7.528;2022-07-24T10:41:02;6.93;;;4.83;;
55009;SDS011;40903;51.638;7.528;2022-07-24T10:43:33;5.17;;;4.67;;
55009;SDS011;40903;51.638;7.528;2022-07-24T10:48:25;5.33;;;4.83;;
55009;SDS011;40903;51.638;7.528;2022-07-24T10:53:28;5.50;;;5.00;;
55009;SDS011;40903;51.638;7.528;2022-07-24T10:58:53;5.63;;;5.13;;
55009;SDS011;40903;51.638;7.528;2022-07-24T11:07:25;5.73;;;5.23;;
55009;SDS011;40903;51.638;7.528;2022-07-24T11:09:31;5.03;;;4.63;;
55009;SDS011;40903;51.638;7.528;2022-07-24T11:12:32;5.70;;;5.10;;
55009;SDS011;40903;51.638;7.528;2022-07-24T11:15:05;8.27;;;5.47;;
55009;SDS011;40903;51.638;7.528;2022-07-24T11:17:49;6.27;;;4.87;;
55009;SDS011;40903;51.638;7.528;2022-07-24T11:20:18;5.20;;;4.67;;
55009;SDS011;40903;51.638;7.528;2022-07-24T11:22:46;5.40;;;4.97;;
55009;SDS011;40903;51.638;7.528;2022-07-24T11:25:15;5.00;;;4.50;;
55009;SDS011;40903;51.638;7.528;2022-07-24T11:27:52;5.73;;;5.23;;
55009;SDS011;40903;51.638;7.528;2022-07-24T11:30:23;5.00;;;4.60;;
55009;SDS011;40903;51.638;7.528;2022-07-24T11:32:51;5.73;;;4.90;;
55009;SDS011;40903;51.638;7.528;2022-07-24T11:35:16;5.00;;;4.60;;
55009;SDS011;40903;51.638;7.528;2022-07-24T11:37:51;5.93;;;5.40;;
55009;SDS011;40903;51.638;7.528;2022-07-24T11:40:17;7.10;;;5.33;;
55009;SDS011;40903;51.638;7.528;2022-07-24T11:42:46;5.30;;;4.80;;
55009;SDS011;40903;51.638;7.528;2022-07-24T11:45:11;6.73;;;5.10;;
55009;SDS011;40903;51.638;7.528;2022-07-24T11:47:37;5.70;;;5.20;;
55009;SDS011;40903;51.638;7.528;2022-07-24T11:50:03;6.70;;;5.07;;
55009;SDS011;40903;51.638;7.528;2022-07-24T11:52:34;5.33;;;4.83;;
55009;SDS011;40903;51.638;7.528;2022-07-24T11:55:11;5.20;;;4.77;;
55009;SDS011;40903;51.638;7.528;2022-07-24T11:57:42;5.93;;;4.57;;
55009;SDS011;40903;51.638;7.528;2022-07-24T12:00:10;5.33;;;4.83;;
55009;SDS011;40903;51.638;7.528;2022-07-24T12:02:47;4.80;;;4.40;;
55009;SDS011;40903;51.638;7.528;2022-07-24T12:05:25;5.10;;;4.70;;
55009;SDS011;40903;51.638;7.528;2022-07-24T12:07:59;7.60;;;5.03;;
55009;SDS011;40903;51.638;7.528;2022-07-24T12:10:27;5.60;;;5.10;;
55009;SDS011;40903;51.638;7.528;2022-07-24T12:12:53;5.93;;;4.90;;
55009;SDS011;40903;51.638;7.528;2022-07-24T12:15:21;5.70;;;4.57;;
55009;SDS011;40903;51.638;7.528;2022-07-24T12:17:54;4.80;;;4.40;;
55009;SDS011;40903;51.638;7.528;2022-07-24T12:20:29;6.90;;;5.03;;
55009;SDS011;40903;51.638;7.528;2022-07-24T12:22:57;7.97;;;5.60;;
55009;SDS011;40903;51.638;7.528;2022-07-24T12:25:24;7.50;;;5.37;;
55009;SDS011;40903;51.638;7.528;2022-07-24T12:27:52;6.00;;;5.37;;
55009;SDS011;40903;51.638;7.528;2022-07-24T12:30:28;6.07;;;4.73;;
55009;SDS011;40903;51.638;7.528;2022-07-24T12:33:03;6.53;;;5.43;;
55009;SDS011;40903;51.638;7.528;2022-07-24T12:35:30;5.13;;;4.73;;
55009;SDS011;40903;51.638;7.528;2022-07-24T12:38:22;4.77;;;4.23;;
55009;SDS011;40903;51.638;7.528;2022-07-24T12:41:07;5.37;;;4.87;;
55009;SDS011;40903;51.638;7.528;2022-07-24T12:43:53;5.43;;;5.00;;
55009;SDS011;40903;51.638;7.528;2022-07-24T12:46:24;5.30;;;4.80;;
55009;SDS011;40903;51.638;7.528;2022-07-24T12:51:25;5.40;;;4.90;;
55009;SDS011;40903;51.638;7.528;2022-07-24T12:53:54;4.67;;;4.27;;
55009;SDS011;40903;51.638;7.528;2022-07-24T12:56:20;5.50;;;5.00;;
55009;SDS011;40903;51.638;7.528;2022-07-24T12:58:50;5.03;;;4.40;;
55009;SDS011;40903;51.638;7.528;2022-07-24T13:01:18;4.97;;;4.17;;
55009;SDS011;40903;51.638;7.528;2022-07-24T13:03:54;4.93;;;4.53;;
55009;SDS011;40903;51.638;7.528;2022-07-24T13:06:41;6.03;;;4.63;;
55009;SDS011;40903;51.638;7.528;2022-07-24T13:09:08;5.40;;;4.63;;
55009;SDS011;40903;51.638;7.528;2022-07-24T13:11:36;4.63;;;4.23;;
55009;SDS011;40903;51.638;7.528;2022-07-24T13:14:02;5.73;;;4.60;;
55009;SDS011;40903;51.638;7.528;2022-07-24T13:16:32;5.27;;;4.77;;
55009;SDS011;40903;51.638;7.528;2022-07-24T13:18:59;4.67;;;4.27;;
55009;SDS011;40903;51.638;7.528;2022-07-24T13:21:26;4.93;;;4.43;;
55009;SDS011;40903;51.638;7.528;2022-07-24T13:23:52;5.17;;;4.67;;
55009;SDS011;40903;51.638;7.528;2022-07-24T13:26:18;4.93;;;4.43;;
55009;SDS011;40903;51.638;7.528;2022-07-24T13:28:44;5.53;;;5.03;;
55009;SDS011;40903;51.638;7.528;2022-07-24T13:31:09;4.73;;;4.33;;
55009;SDS011;40903;51.638;7.528;2022-07-24T13:33:35;7.07;;;4.23;;
55009;SDS011;40903;51.638;7.528;2022-07-24T13:36:00;5.20;;;4.67;;
55009;SDS011;40903;51.638;7.528;2022-07-24T13:38:25;4.43;;;4.10;;
55009;SDS011;40903;51.638;7.528;2022-07-24T13:40:51;5.00;;;4.47;;
55009;SDS011;40903;51.638;7.528;2022-07-24T13:43:16;5.10;;;4.50;;
55009;SDS011;40903;51.638;7.528;2022-07-24T13:45:41;4.33;;;4.00;;
55009;SDS011;40903;51.638;7.528;2022-07-24T13:48:06;4.50;;;4.10;;
55009;SDS011;40903;51.638;7.528;2022-07-24T13:50:32;4.70;;;4.30;;
55009;SDS011;40903;51.638;7.528;2022-07-24T13:52:57;5.63;;;4.30;;
55009;SDS011;40903;51.638;7.528;2022-07-24T13:55:24;5.20;;;4.43;;
55009;SDS011;40903;51.638;7.528;2022-07-24T13:57:49;4.30;;;3.93;;
55009;SDS011;40903;51.638;7.528;2022-07-24T14:00:14;4.90;;;4.43;;
55009;SDS011;40903;51.638;7.528;2022-07-24T14:02:40;4.73;;;4.33;;
55009;SDS011;40903;51.638;7.528;2022-07-24T14:05:05;4.67;;;4.27;;
55009;SDS011;40903;51.638;7.528;2022-07-24T14:07:31;5.30;;;4.80;;
55009;SDS011;40903;51.638;7.528;2022-07-24T14:09:56;5.40;;;4.53;;
55009;SDS011;40903;51.638;7.528;2022-07-24T14:12:22;4.50;;;4.13;;
55009;SDS011;40903;51.638;7.528;2022-07-24T14:14:47;5.47;;;4.50;;
55009;SDS011;40903;51.638;7.528;2022-07-24T14:17:13;6.20;;;5.07;;
55009;SDS011;40903;51.638;7.528;2022-07-24T14:19:38;5.47;;;4.97;;
55009;SDS011;40903;51.638;7.528;2022-07-24T14:22:04;4.97;;;4.57;;
55009;SDS011;40903;51.638;7.528;2022-07-24T14:24:29;4.83;;;4.43;;
55009;SDS011;40903;51.638;7.528;2022-07-24T14:26:55;6.43;;;4.57;;
55009;SDS011;40903;51.638;7.528;2022-07-24T14:29:20;5.20;;;4.73;;
55009;SDS011;40903;51.638;7.528;2022-07-24T14:31:45;5.27;;;4.77;;
55009;SDS011;40903;51.638;7.528;2022-07-24T14:34:12;5.90;;;4.40;;
55009;SDS011;40903;51.638;7.528;2022-07-24T14:36:37;4.93;;;4.33;;
55009;SDS011;40903;51.638;7.528;2022-07-24T14:39:03;5.37;;;4.50;;
55009;SDS011;40903;51.638;7.528;2022-07-24T14:41:28;4.80;;;4.30;;
55009;SDS011;40903;51.638;7.528;2022-07-24T14:43:54;4.80;;;4.40;;
55009;SDS011;40903;51.638;7.528;2022-07-24T14:46:19;5.03;;;4.63;;
55009;SDS011;40903;51.638;7.528;2022-07-24T14:48:44;4.80;;;4.37;;
55009;SDS011;40903;51.638;7.528;2022-07-24T14:51:10;5.40;;;5.00;;
55009;SDS011;40903;51.638;7.528;2022-07-24T14:53:35;6.27;;;5.20;;
55009;SDS011;40903;51.638;7.528;2022-07-24T14:56:01;5.13;;;4.73;;
55009;SDS011;40903;51.638;7.528;2022-07-24T14:58:26;6.13;;;4.83;;
55009;SDS011;40903;51.638;7.528;2022-07-24T15:00:52;4.80;;;4.40;;
55009;SDS011;40903;51.638;7.528;2022-07-24T15:03:17;5.10;;;4.70;;
55009;SDS011;40903;51.638;7.528;2022-07-24T15:05:42;5.07;;;4.57;;